Weather at Christmas Island Airport

Public forecast

Using degrees Celsius for public forecast. Weather courtesy of forecast.io.

Current aviation weather report (METAR) for Christmas Island Airport

Retrieved 2020/10/30 01:30 UTC (0 seconds ago):

YPXM 300130Z AUTO 11011KT 9999 // OVC006 OVC012 26/23 Q1014

Aviation forecast (TAF) for Christmas Island Airport

Forecast is more than 6 hours old.

Retrieved 2020/10/29 18:36 UTC (7 hours ago):

TAF YPXM 291705Z 2918/3018 13010KT 9999 BKN007 FM300400 14008KT 9999 BKN004